Aérodrome :
LOGIN :

S'inscrire | Disclaimer

   EN    FR    IT 

 










Légende :    VFR   VFR Marginal   IFR   IFR Intensif   IFR Très Intensif
Visi : 
Plafond : 
>= 8 km
>= 3000ft
5 à 8 km
1000 à 3000 ft
1500m à 5 km
500 à 1000 ft
800 à 1500m
200 à 500 ft
< 800m
< 200 ft
Symboles :   Orages  Brouillard  Fortes neiges  Fortes précipitations  Vent > 20 kt
SIGMETs :   Divers  Orages  Givrage  Turbulence  Onde Orograph.  Cendres Volcan.







- Altitude de l'aérodrome : 584 ft
- Voir les cartes d'approche


LFPV - Villacoublay Vélizy

DERNIER METAR :
  • 220930Z AUTO 18006KT 0750 0700 R27/0900N R09/1000U SN FZFG OVC003/// ///CB M01/M01 Q1007 BECMG 9999 NSW BKN005

METARs EXPIRÉS :
  • 220900Z AUTO 18007KT 1300 1200 R27/1700U R09/1600U -SN BR OVC004/// ///TCU M01/M02 Q1007 BECMG SN BKN002
  • 220830Z AUTO 18008KT 1900 -SN BR OVC005/// ///CB M01/M02 Q1007 TEMPO 1000 BECMG BKN002
  • 220800Z AUTO 18007KT 130V210 3000 -FZRA BR OVC006/// ///TCU M02/M02 Q1008 TEMPO 1200 BECMG BKN002
  • 220730Z AUTO 18006KT 4200 BR BKN006/// OVC016/// ///TCU M02/M03 Q1008 TEMPO 1200 BECMG BKN002
  • 220700Z AUTO 18008KT 4300 BR BKN006 OVC062 M02/M03 Q1009 TEMPO 1200 BECMG BKN002

TAF TAF LFPV
Valide du 22 à 09h jusqu'au 23 à 09h UTC


220800Z 2209/2309 18012KT 3000 SN BKN002
TEMPO 2209/2211 1000
BECMG 2211/2213 25006KT 9999 NSW BKN005
TEMPO 2222/2309 1500 SHSN
Pas de NOTAMs connus pour ce terrain.



MET'MAP, la Météo Aéronautique d'un coup d'oeil ! - Copyright ORBIFLY Décembre 2007 - Disclaimer

ORBIFLY MET'MAP TEAM :

Programmation & Développement : Alexandra Zaïnal
Conception & Développement : Baudouin d'Aumeries
Co-Programmation & Développement : Marc-Olivier Méhu
Soutien technique & logistique : Manuel Goepfert

Contact : metmap@orbifly.com




SOURCES & CREDITS :

   NOAA